createdAt,value
2019-01-12T00:00:19.248Z,102222.42
2019-01-12T00:02:47.854Z,102219.39
2019-01-12T00:05:16.561Z,102213.69
2019-01-12T00:07:45.161Z,102212.94
2019-01-12T00:10:14.291Z,102214.91
2019-01-12T00:12:42.917Z,102213.94
2019-01-12T00:15:11.531Z,102214.53
2019-01-12T00:17:40.156Z,102210.87
2019-01-12T00:20:09.607Z,102211.22
2019-01-12T00:22:38.218Z,102209.33
2019-01-12T00:25:08.365Z,102211.92
2019-01-12T00:27:37.000Z,102207.52
2019-01-12T00:30:08.917Z,102199.19
2019-01-12T00:32:37.391Z,102204.21
2019-01-12T00:35:06.720Z,102211.38
2019-01-12T00:37:35.302Z,102206.83
2019-01-12T00:40:05.089Z,102203.64
2019-01-12T00:42:33.669Z,102207.56
2019-01-12T00:45:02.274Z,102203.18
2019-01-12T00:47:32.684Z,102198.00
2019-01-12T00:50:01.471Z,102199.41
2019-01-12T00:52:30.095Z,102192.07
2019-01-12T00:54:58.631Z,102196.88
2019-01-12T00:57:27.215Z,102195.36
2019-01-12T00:59:55.754Z,102190.67
2019-01-12T01:02:24.464Z,102191.53
2019-01-12T01:04:53.092Z,102189.45
2019-01-12T01:07:21.698Z,102195.47
2019-01-12T01:09:50.333Z,102196.69
2019-01-12T01:12:18.965Z,102193.38
2019-01-12T01:14:47.489Z,102191.09
2019-01-12T01:17:16.069Z,102193.85
2019-01-12T01:19:44.685Z,102193.17
2019-01-12T01:22:13.344Z,102188.16
2019-01-12T01:24:45.762Z,102189.57
2019-01-12T01:27:12.625Z,102194.16
2019-01-12T01:29:41.251Z,102190.42
2019-01-12T01:32:09.913Z,102190.75
2019-01-12T01:34:38.512Z,102191.36
2019-01-12T01:37:07.127Z,102193.19
2019-01-12T01:39:35.635Z,102198.79
2019-01-12T01:42:04.431Z,102194.00
2019-01-12T01:44:33.024Z,102189.73
2019-01-12T01:47:01.582Z,102200.55
2019-01-12T01:49:30.318Z,102195.34
2019-01-12T01:51:58.870Z,102191.50
2019-01-12T01:54:27.485Z,102193.98
2019-01-12T01:56:56.106Z,102191.36
2019-01-12T01:59:24.662Z,102182.27
2019-01-12T02:01:53.239Z,102187.23
2019-01-12T02:04:21.841Z,102184.75
2019-01-12T02:06:50.456Z,102182.05
2019-01-12T02:09:19.057Z,102180.23
2019-01-12T02:11:47.599Z,102178.66
2019-01-12T02:14:16.190Z,102172.98
2019-01-12T02:16:44.962Z,102171.14
2019-01-12T02:19:13.563Z,102176.11
2019-01-12T02:21:42.179Z,102175.86
2019-01-12T02:24:10.765Z,102170.55
2019-01-12T02:26:39.655Z,102167.67
2019-01-12T02:29:08.282Z,102166.47
2019-01-12T02:31:36.776Z,102170.17
2019-01-12T02:34:05.482Z,102169.20
2019-01-12T02:36:34.088Z,102164.95
2019-01-12T02:39:02.961Z,102158.29
2019-01-12T02:41:31.575Z,102155.14
2019-01-12T02:44:00.240Z,102146.72
2019-01-12T02:46:28.848Z,102154.38
2019-01-12T02:48:58.102Z,102146.98
2019-01-12T02:51:26.730Z,102145.00
2019-01-12T02:53:55.281Z,102147.26
2019-01-12T02:56:23.935Z,102149.98
2019-01-12T02:58:52.510Z,102144.19
2019-01-12T03:01:21.139Z,102142.98
2019-01-12T03:03:49.763Z,102143.13
2019-01-12T03:06:18.339Z,102141.01
2019-01-12T03:08:46.787Z,102144.53
2019-01-12T03:11:15.404Z,102139.75
2019-01-12T03:13:44.016Z,102131.70
2019-01-12T03:16:13.082Z,102133.28
2019-01-12T03:18:41.591Z,102126.57
2019-01-12T03:21:10.298Z,102127.84
2019-01-12T03:23:38.920Z,102116.27
2019-01-12T03:26:07.452Z,102117.48
2019-01-12T03:28:36.015Z,102109.68
2019-01-12T03:31:04.601Z,102106.12
2019-01-12T03:33:33.203Z,102104.78
2019-01-12T03:36:01.820Z,102100.77
2019-01-12T03:38:30.342Z,102099.97
2019-01-12T03:40:59.003Z,102096.68
2019-01-12T03:43:27.626Z,102097.76
2019-01-12T03:45:56.259Z,102087.39
2019-01-12T03:48:24.896Z,102096.83
2019-01-12T03:50:53.548Z,102087.77
2019-01-12T03:53:22.124Z,102085.13
2019-01-12T03:55:50.728Z,102086.02
2019-01-12T03:58:19.333Z,102076.73
2019-01-12T04:00:47.957Z,102076.77
2019-01-12T04:03:16.563Z,102079.86
2019-01-12T04:05:45.361Z,102079.45
2019-01-12T04:08:13.968Z,102077.49
2019-01-12T04:10:42.471Z,102070.53
2019-01-12T04:13:11.089Z,102073.42
2019-01-12T04:15:39.739Z,102079.52
2019-01-12T04:18:08.349Z,102088.41
2019-01-12T04:20:36.977Z,102073.70
2019-01-12T04:23:05.590Z,102071.00
2019-01-12T04:25:34.567Z,102073.22
2019-01-12T04:28:03.283Z,102071.61
2019-01-12T04:30:31.884Z,102064.91
2019-01-12T04:33:00.454Z,102070.98
2019-01-12T04:35:28.988Z,102067.31
2019-01-12T04:37:57.570Z,102063.88
2019-01-12T04:40:26.179Z,102071.03
2019-01-12T04:42:54.764Z,102070.70
2019-01-12T04:45:23.422Z,102076.45
2019-01-12T04:47:52.040Z,102079.85
2019-01-12T04:50:20.630Z,102077.20
2019-01-12T04:52:49.222Z,102077.03
2019-01-12T04:55:17.939Z,102072.23
2019-01-12T04:57:46.565Z,102077.80
2019-01-12T05:00:16.595Z,102063.45
2019-01-12T05:02:45.847Z,102065.89
2019-01-12T05:05:14.975Z,102060.06
2019-01-12T05:07:43.506Z,102068.00
2019-01-12T05:10:13.218Z,102057.70
2019-01-12T05:12:41.903Z,102054.16
2019-01-12T05:15:14.365Z,102062.38
2019-01-12T05:17:42.981Z,102056.06
2019-01-12T05:20:19.196Z,102057.31
2019-01-12T05:22:48.038Z,102053.75
2019-01-12T05:25:16.642Z,102053.95
2019-01-12T05:27:45.763Z,102060.55
2019-01-12T05:30:17.276Z,102049.05
2019-01-12T05:32:45.877Z,102055.00
2019-01-12T05:35:14.451Z,102054.33
2019-01-12T05:37:43.023Z,102048.75
2019-01-12T05:40:11.835Z,102046.55
2019-01-12T05:42:40.397Z,102047.67
2019-01-12T05:45:11.326Z,102056.23
2019-01-12T05:47:39.912Z,102051.91
2019-01-12T05:50:10.644Z,102044.42
2019-01-12T05:52:39.232Z,102043.42
2019-01-12T05:55:08.964Z,102047.97
2019-01-12T05:57:37.537Z,102047.91
2019-01-12T06:00:09.123Z,102042.95
2019-01-12T06:02:37.753Z,102046.72
2019-01-12T06:05:06.343Z,102039.70
2019-01-12T06:07:34.893Z,102035.72
2019-01-12T06:10:04.378Z,102029.06
2019-01-12T06:12:32.932Z,102030.52
2019-01-12T06:15:01.397Z,102031.92
2019-01-12T06:17:30.027Z,102029.03
2019-01-12T06:19:58.671Z,102033.13
2019-01-12T06:22:27.360Z,102020.84
2019-01-12T06:24:55.940Z,102012.67
2019-01-12T06:27:24.625Z,102013.92
2019-01-12T06:29:53.138Z,102019.50
2019-01-12T06:32:21.703Z,102016.97
2019-01-12T06:34:50.208Z,102009.54
2019-01-12T06:37:18.962Z,101997.34
2019-01-12T06:39:47.551Z,101997.34
2019-01-12T06:42:16.136Z,101994.48
2019-01-12T06:44:44.742Z,101990.22
2019-01-12T06:47:13.402Z,101985.44
2019-01-12T06:49:41.906Z,101984.44
2019-01-12T06:52:10.491Z,101971.75
2019-01-12T06:54:39.178Z,101970.97
2019-01-12T06:57:07.735Z,101967.83
2019-01-12T06:59:36.348Z,101966.45
2019-01-12T07:02:05.186Z,101966.63
2019-01-12T07:04:33.752Z,101977.03
2019-01-12T07:07:02.364Z,101969.61
2019-01-12T07:09:30.980Z,101958.86
2019-01-12T07:11:59.554Z,101960.52
2019-01-12T07:14:28.179Z,101976.72
2019-01-12T07:16:56.721Z,101973.83
2019-01-12T07:19:25.411Z,101966.31
2019-01-12T07:21:54.033Z,101956.05
2019-01-12T07:24:22.728Z,101959.25
2019-01-12T07:26:51.296Z,101953.35
2019-01-12T07:29:19.945Z,101950.15
2019-01-12T07:31:48.462Z,101941.81
2019-01-12T07:34:17.102Z,101933.22
2019-01-12T07:36:46.188Z,101934.28
2019-01-12T07:39:14.795Z,101922.34
2019-01-12T07:41:43.385Z,101914.44
2019-01-12T07:44:12.015Z,101902.77
2019-01-12T07:46:40.522Z,101896.20
2019-01-12T07:49:09.158Z,101902.10
2019-01-12T07:51:37.739Z,101903.77
2019-01-12T07:54:06.402Z,101900.80
2019-01-12T07:56:34.955Z,101898.37
2019-01-12T07:59:03.532Z,101907.04
2019-01-12T08:01:32.147Z,101905.16
2019-01-12T08:04:00.725Z,101908.47
2019-01-12T08:06:29.312Z,101900.16
2019-01-12T08:08:57.922Z,101904.03
2019-01-12T08:11:26.527Z,101889.66
2019-01-12T08:13:55.148Z,101884.75
2019-01-12T08:16:23.789Z,101883.30
2019-01-12T08:18:52.352Z,101890.55
2019-01-12T08:21:20.959Z,101890.84
2019-01-12T08:23:49.559Z,101880.78
2019-01-12T08:26:18.185Z,101871.61
2019-01-12T08:28:46.796Z,101870.81
2019-01-12T08:31:16.924Z,101871.38
2019-01-12T08:33:46.496Z,101864.64
2019-01-12T08:36:15.037Z,101868.45
2019-01-12T08:38:43.731Z,101874.16
2019-01-12T08:41:12.332Z,101894.86
2019-01-12T08:43:40.854Z,101894.86
2019-01-12T08:46:09.471Z,101894.87
2019-01-12T08:48:38.103Z,101892.69
2019-01-12T08:51:06.647Z,101870.47
2019-01-12T08:53:35.259Z,101865.58
2019-01-12T08:56:03.886Z,101854.18
2019-01-12T08:58:32.460Z,101854.69
2019-01-12T09:01:00.983Z,101857.63
2019-01-12T09:03:29.420Z,101846.02
2019-01-12T09:05:58.051Z,101837.69
2019-01-12T09:08:26.669Z,101828.55
2019-01-12T09:10:55.141Z,101829.86
2019-01-12T09:13:23.686Z,101821.53
2019-01-12T09:15:52.231Z,101822.91
2019-01-12T09:18:20.862Z,101828.34
2019-01-12T09:20:49.456Z,101832.66
2019-01-12T09:23:18.077Z,101826.73
2019-01-12T09:25:46.705Z,101830.75
2019-01-12T09:28:15.284Z,101820.50
2019-01-12T09:30:48.475Z,101823.17
2019-01-12T09:33:14.240Z,101816.16
2019-01-12T09:35:42.821Z,101805.38
2019-01-12T09:38:11.462Z,101791.34
2019-01-12T09:40:39.962Z,101786.75
2019-01-12T09:43:08.620Z,101785.70
2019-01-12T09:45:37.336Z,101764.62
2019-01-12T09:48:06.090Z,101766.77
2019-01-12T09:50:34.607Z,101768.41
2019-01-12T09:53:03.233Z,101770.05
2019-01-12T09:55:31.867Z,101764.41
2019-01-12T09:58:00.463Z,101767.91
2019-01-12T10:00:29.159Z,101761.97
2019-01-12T10:02:57.773Z,101758.16
2019-01-12T10:05:26.382Z,101746.25
2019-01-12T10:07:55.080Z,101756.19
2019-01-12T10:10:23.916Z,101750.55
2019-01-12T10:12:52.532Z,101757.31
2019-01-12T10:15:21.236Z,101747.32
2019-01-12T10:17:49.876Z,101744.63
2019-01-12T10:20:19.292Z,101742.50
2019-01-12T10:22:47.878Z,101739.80
2019-01-12T10:25:17.202Z,101724.97
2019-01-12T10:27:45.883Z,101708.77
2019-01-12T10:30:24.480Z,101705.25
2019-01-12T10:32:53.103Z,101699.86
2019-01-12T10:35:22.011Z,101701.20
2019-01-12T10:37:50.623Z,101695.52
2019-01-12T10:40:20.092Z,101690.92
2019-01-12T10:42:49.297Z,101681.17
2019-01-12T10:45:20.322Z,101691.17
2019-01-12T10:47:49.024Z,101680.38
2019-01-12T10:50:22.068Z,101675.54
2019-01-12T10:52:50.791Z,101667.16
2019-01-12T10:55:19.501Z,101663.39
2019-01-12T10:57:48.148Z,101659.33
2019-01-12T11:00:20.112Z,101660.14
2019-01-12T11:02:48.760Z,101660.67
2019-01-12T11:05:17.800Z,101653.95
2019-01-12T11:07:47.266Z,101650.42
2019-01-12T11:10:15.924Z,101652.30
2019-01-12T11:12:44.504Z,101633.41
2019-01-12T11:15:18.675Z,101635.00
2019-01-12T11:17:47.392Z,101633.09
2019-01-12T11:20:16.017Z,101625.02
2019-01-12T11:22:44.960Z,101623.94
2019-01-12T11:25:14.704Z,101616.94
2019-01-12T11:27:44.350Z,101613.70
2019-01-12T11:30:18.451Z,101611.80
2019-01-12T11:32:47.305Z,101596.43
2019-01-12T11:35:15.888Z,101589.16
2019-01-12T11:37:44.636Z,101581.60
2019-01-12T11:40:15.928Z,101576.99
2019-01-12T11:42:44.580Z,101577.81
2019-01-12T11:45:14.171Z,101571.08
2019-01-12T11:47:42.721Z,101565.95
2019-01-12T11:50:13.670Z,101559.75
2019-01-12T11:52:42.456Z,101548.41
2019-01-12T11:55:12.753Z,101539.78
2019-01-12T11:57:41.459Z,101529.25
2019-01-12T12:00:13.048Z,101530.07
2019-01-12T12:02:41.711Z,101519.27
2019-01-12T12:05:10.470Z,101516.83
2019-01-12T12:07:39.127Z,101518.19
2019-01-12T12:10:10.620Z,101510.89
2019-01-12T12:12:39.312Z,101504.95
2019-01-12T12:15:11.379Z,101495.78
2019-01-12T12:17:39.979Z,101491.16
2019-01-12T12:20:14.731Z,101491.16
2019-01-12T12:22:43.307Z,101477.44
2019-01-12T12:25:12.151Z,101467.72
2019-01-12T12:27:40.733Z,101466.13
2019-01-12T12:30:12.337Z,101462.88
2019-01-12T12:32:40.971Z,101446.97
2019-01-12T12:35:09.635Z,101442.91
2019-01-12T12:37:38.195Z,101441.83
2019-01-12T12:40:10.020Z,101432.66
2019-01-12T12:42:38.606Z,101425.09
2019-01-12T12:45:10.168Z,101424.82
2019-01-12T12:47:38.811Z,101411.33
2019-01-12T12:50:10.514Z,101402.36
2019-01-12T12:52:39.028Z,101407.11
2019-01-12T12:55:08.225Z,101393.66
2019-01-12T12:57:36.935Z,101389.16
2019-01-12T13:00:23.317Z,101380.58
2019-01-12T13:02:51.950Z,101382.77
2019-01-12T13:05:20.762Z,101394.62
2019-01-12T13:07:49.404Z,101371.16
2019-01-12T13:10:20.476Z,101368.19
2019-01-12T13:12:49.096Z,101375.73
2019-01-12T13:15:17.993Z,101366.49
2019-01-12T13:17:47.569Z,101357.56
2019-01-12T13:20:18.351Z,101366.50
2019-01-12T13:22:49.362Z,101347.64
2019-01-12T13:25:18.109Z,101338.37
2019-01-12T13:27:47.795Z,101344.16
2019-01-12T13:30:21.417Z,101337.52
2019-01-12T13:32:50.116Z,101328.16
2019-01-12T13:35:18.802Z,101325.06
2019-01-12T13:37:48.037Z,101326.45
2019-01-12T13:40:23.064Z,101322.47
2019-01-12T13:42:51.731Z,101313.87
2019-01-12T13:45:21.473Z,101313.83
2019-01-12T13:47:50.144Z,101311.66
2019-01-12T13:50:21.006Z,101304.67
2019-01-12T13:52:49.673Z,101299.54
2019-01-12T13:55:18.346Z,101295.44
2019-01-12T13:57:48.305Z,101295.38
2019-01-12T14:00:20.875Z,101279.62
2019-01-12T14:02:49.502Z,101284.31
2019-01-12T14:05:18.144Z,101282.62
2019-01-12T14:07:47.810Z,101270.38
2019-01-12T14:10:19.156Z,101272.70
2019-01-12T14:12:47.829Z,101270.86
2019-01-12T14:15:18.063Z,101268.61
2019-01-12T14:17:46.704Z,101273.49
2019-01-12T14:20:26.975Z,101272.64
2019-01-12T14:22:55.611Z,101265.42
2019-01-12T14:25:24.261Z,101264.59
2019-01-12T14:27:54.972Z,101266.20
2019-01-12T14:30:23.389Z,101260.75
2019-01-12T14:32:52.050Z,101255.49
2019-01-12T14:35:20.880Z,101250.77
2019-01-12T14:37:50.180Z,101239.38
2019-01-12T14:40:22.021Z,101239.78
2019-01-12T14:42:50.640Z,101245.77
2019-01-12T14:45:25.232Z,101244.63
2019-01-12T14:47:53.899Z,101250.44
2019-01-12T14:50:22.829Z,101248.57
2019-01-12T14:52:51.489Z,101236.87
2019-01-12T14:55:21.534Z,101238.52
2019-01-12T14:57:50.205Z,101246.30
2019-01-12T15:00:26.619Z,101254.40
2019-01-12T15:02:55.251Z,101257.36
2019-01-12T15:05:25.665Z,101264.31
2019-01-12T15:07:54.287Z,101268.59
2019-01-12T15:10:23.766Z,101270.67
2019-01-12T15:12:52.683Z,101262.72
2019-01-12T15:15:21.368Z,101261.97
2019-01-12T15:17:49.962Z,101263.84
2019-01-12T15:20:23.790Z,101262.20
2019-01-12T15:22:52.450Z,101266.66
2019-01-12T15:25:21.246Z,101255.30
2019-01-12T15:27:49.891Z,101246.39
2019-01-12T15:30:26.826Z,101244.78
2019-01-12T15:32:55.499Z,101242.11
2019-01-12T15:35:26.420Z,101239.86
2019-01-12T15:37:55.032Z,101240.86
2019-01-12T15:40:23.929Z,101235.36
2019-01-12T15:42:52.628Z,101232.73
2019-01-12T15:45:25.798Z,101238.77
2019-01-12T15:47:54.456Z,101239.42
2019-01-12T15:50:27.177Z,101236.28
2019-01-12T15:52:56.219Z,101230.53
2019-01-12T15:55:24.986Z,101222.12
2019-01-12T15:57:53.592Z,101219.44
2019-01-12T16:00:24.458Z,101219.05
2019-01-12T16:02:53.031Z,101224.30
2019-01-12T16:05:21.640Z,101221.30
2019-01-12T16:07:50.292Z,101212.06
2019-01-12T16:10:19.020Z,101202.71
2019-01-12T16:12:47.636Z,101202.88
2019-01-12T16:15:18.951Z,101200.69
2019-01-12T16:17:47.706Z,101200.35
2019-01-12T16:20:19.014Z,101195.48
2019-01-12T16:22:47.672Z,101197.34
2019-01-12T16:25:16.941Z,101191.80
2019-01-12T16:27:45.539Z,101199.27
2019-01-12T16:30:21.150Z,101182.39
2019-01-12T16:32:50.118Z,101192.19
2019-01-12T16:35:19.101Z,101191.78
2019-01-12T16:37:47.715Z,101188.01
2019-01-12T16:40:18.635Z,101186.39
2019-01-12T16:42:47.294Z,101195.42
2019-01-12T16:45:17.357Z,101189.76
2019-01-12T16:47:45.939Z,101184.25
2019-01-12T16:50:14.760Z,101188.30
2019-01-12T16:52:43.586Z,101177.16
2019-01-12T16:55:15.110Z,101173.74
2019-01-12T16:57:43.820Z,101176.98
2019-01-12T17:00:15.734Z,101168.94
2019-01-12T17:02:44.324Z,101167.75
2019-01-12T17:05:12.950Z,101162.75
2019-01-12T17:07:42.297Z,101155.44
2019-01-12T17:10:16.240Z,101153.09
2019-01-12T17:12:44.863Z,101154.64
2019-01-12T17:15:15.349Z,101155.55
2019-01-12T17:17:44.048Z,101151.06
2019-01-12T17:20:19.304Z,101150.48
2019-01-12T17:22:48.758Z,101147.92
2019-01-12T17:25:17.370Z,101144.12
2019-01-12T17:27:45.956Z,101158.19
2019-01-12T17:30:19.836Z,101154.09
2019-01-12T17:32:49.093Z,101151.82
2019-01-12T17:35:17.676Z,101155.41
2019-01-12T17:37:47.009Z,101149.63
2019-01-12T17:40:16.930Z,101150.48
2019-01-12T17:42:45.581Z,101155.36
2019-01-12T17:45:16.700Z,101152.92
2019-01-12T17:47:45.219Z,101162.12
2019-01-12T17:50:16.158Z,101168.68
2019-01-12T17:52:44.977Z,101174.62
2019-01-12T17:55:18.507Z,101170.31
2019-01-12T17:57:47.098Z,101177.07
2019-01-12T18:00:19.916Z,101172.85
2019-01-12T18:02:49.260Z,101170.70
2019-01-12T18:05:17.881Z,101169.64
2019-01-12T18:07:46.489Z,101168.70
2019-01-12T18:10:15.426Z,101168.25
2019-01-12T18:12:44.024Z,101170.61
2019-01-12T18:15:16.950Z,101160.24
2019-01-12T18:17:45.578Z,101164.65
2019-01-12T18:20:18.736Z,101172.47
2019-01-12T18:22:47.372Z,101178.37
2019-01-12T18:25:16.962Z,101181.28
2019-01-12T18:27:45.730Z,101171.06
2019-01-12T18:30:22.321Z,101175.43
2019-01-12T18:32:50.935Z,101175.46
2019-01-12T18:35:19.649Z,101175.08
2019-01-12T18:37:48.254Z,101167.67
2019-01-12T18:40:18.928Z,101167.56
2019-01-12T18:42:47.536Z,101176.14
2019-01-12T18:45:18.080Z,101169.77
2019-01-12T18:47:46.975Z,101175.26
2019-01-12T18:50:18.404Z,101170.30
2019-01-12T18:52:46.938Z,101175.77
2019-01-12T18:55:15.876Z,101171.63
2019-01-12T18:57:44.535Z,101176.09
2019-01-12T19:00:18.567Z,101177.34
2019-01-12T19:02:46.985Z,101164.30
2019-01-12T19:05:15.649Z,101169.61
2019-01-12T19:07:44.529Z,101179.17
2019-01-12T19:10:14.199Z,101179.28
2019-01-12T19:12:42.793Z,101174.56
2019-01-12T19:15:28.502Z,101166.39
2019-01-12T19:17:57.218Z,101171.72
2019-01-12T19:20:26.688Z,101171.88
2019-01-12T19:22:55.455Z,101161.62
2019-01-12T19:25:24.023Z,101160.20
2019-01-12T19:27:52.641Z,101156.77
2019-01-12T19:30:22.625Z,101160.86
2019-01-12T19:32:51.273Z,101158.06
2019-01-12T19:35:19.987Z,101154.72
2019-01-12T19:37:49.625Z,101171.64
2019-01-12T19:40:20.219Z,101161.73
2019-01-12T19:42:49.588Z,101160.73
2019-01-12T19:45:18.339Z,101148.02
2019-01-12T19:47:47.209Z,101154.73
2019-01-12T19:50:18.184Z,101157.46
2019-01-12T19:52:47.102Z,101159.78
2019-01-12T19:55:15.772Z,101152.95
2019-01-12T19:57:44.319Z,101149.24
2019-01-12T20:00:15.349Z,101152.13
2019-01-12T20:02:44.018Z,101141.08
2019-01-12T20:05:12.635Z,101140.38
2019-01-12T20:07:41.254Z,101146.06
2019-01-12T20:10:12.871Z,101143.54
2019-01-12T20:12:41.453Z,101142.00
2019-01-12T20:15:13.360Z,101136.09
2019-01-12T20:17:41.863Z,101137.76
2019-01-12T20:20:13.212Z,101133.03
2019-01-12T20:22:41.937Z,101129.45
2019-01-12T20:25:13.393Z,101136.39
2019-01-12T20:27:41.983Z,101138.62
2019-01-12T20:30:16.203Z,101133.73
2019-01-12T20:32:53.689Z,101133.36
2019-01-12T20:35:31.143Z,101126.31
2019-01-12T20:38:08.613Z,101131.36
2019-01-12T20:40:42.617Z,101120.66
2019-01-12T20:43:16.613Z,101131.57
2019-01-12T20:46:00.042Z,101130.14
2019-01-12T20:48:43.630Z,101139.84
2019-01-12T20:51:20.873Z,101131.48
2019-01-12T20:54:01.357Z,101133.25
2019-01-12T20:56:38.763Z,101134.05
2019-01-12T20:59:12.998Z,101128.33
2019-01-12T21:01:47.225Z,101124.02
2019-01-12T21:04:27.590Z,101119.81
2019-01-12T21:07:01.963Z,101115.81
2019-01-12T21:09:39.517Z,101120.73
2019-01-12T21:12:17.906Z,101118.66
2019-01-12T21:14:49.540Z,101110.38
2019-01-12T21:17:18.153Z,101114.45
2019-01-12T21:19:48.616Z,101118.42
2019-01-12T21:22:17.266Z,101115.66
2019-01-12T21:24:45.913Z,101109.83
2019-01-12T21:27:14.506Z,101113.33
2019-01-12T21:29:43.011Z,101114.27
2019-01-12T21:32:11.656Z,101112.45
2019-01-12T21:34:40.248Z,101106.68
2019-01-12T21:37:08.894Z,101113.64
2019-01-12T21:39:37.518Z,101110.31
2019-01-12T21:42:06.173Z,101110.53
2019-01-12T21:44:34.817Z,101102.70
2019-01-12T21:47:03.450Z,101099.84
2019-01-12T21:49:32.114Z,101099.09
2019-01-12T21:52:00.779Z,101094.75
2019-01-12T21:54:29.383Z,101094.19
2019-01-12T21:56:57.970Z,101096.86
2019-01-12T21:59:26.657Z,101102.33
2019-01-12T22:01:55.373Z,101099.09
2019-01-12T22:04:24.650Z,101101.17
2019-01-12T22:06:53.330Z,101102.52
2019-01-12T22:09:21.961Z,101110.00
2019-01-12T22:11:50.659Z,101102.60
2019-01-12T22:14:19.333Z,101110.52
2019-01-12T22:16:48.056Z,101107.15
2019-01-12T22:19:16.651Z,101102.67
2019-01-12T22:21:45.261Z,101098.05
2019-01-12T22:24:13.951Z,101103.80
2019-01-12T22:26:43.030Z,101100.91
2019-01-12T22:29:11.703Z,101104.11
2019-01-12T22:31:40.320Z,101108.71
2019-01-12T22:34:08.908Z,101109.75
2019-01-12T22:36:37.516Z,101107.27
2019-01-12T22:39:08.082Z,101112.59
2019-01-12T22:41:36.717Z,101106.68
2019-01-12T22:44:05.304Z,101105.63
2019-01-12T22:46:33.939Z,101102.60
2019-01-12T22:49:02.536Z,101102.88
2019-01-12T22:51:31.193Z,101105.00
2019-01-12T22:53:59.799Z,101102.59
2019-01-12T22:56:28.390Z,101097.30
2019-01-12T22:58:56.986Z,101095.38
2019-01-12T23:01:28.921Z,101089.08
2019-01-12T23:03:57.468Z,101083.23
2019-01-12T23:06:26.092Z,101085.16
2019-01-12T23:08:54.876Z,101093.42
2019-01-12T23:11:23.528Z,101098.20
2019-01-12T23:13:52.121Z,101092.13
2019-01-12T23:16:20.762Z,101084.40
2019-01-12T23:18:49.369Z,101086.09
2019-01-12T23:21:17.956Z,101077.64
2019-01-12T23:23:46.689Z,101074.34
2019-01-12T23:26:15.225Z,101074.05
2019-01-12T23:28:43.870Z,101067.25
2019-01-12T23:31:13.320Z,101067.31
2019-01-12T23:33:41.954Z,101066.45
2019-01-12T23:36:10.653Z,101065.13
2019-01-12T23:38:39.175Z,101069.88
2019-01-12T23:41:07.764Z,101074.63
2019-01-12T23:43:36.392Z,101068.66
2019-01-12T23:46:05.197Z,101079.72
2019-01-12T23:48:33.816Z,101084.64
2019-01-12T23:51:02.440Z,101077.09
2019-01-12T23:53:31.010Z,101079.50
2019-01-12T23:55:59.614Z,101078.91
2019-01-12T23:58:28.129Z,101077.73
